sensor_id;sensor_type;location;lat;lon;timestamp;pressure;altitude;pressure_sealevel;temperature;humidity
72558;BME280;60583;50.094;8.748;2023-03-15T00:00:11;100158.16;;;4.99;74.11
72558;BME280;60583;50.094;8.748;2023-03-15T00:02:37;100141.63;;;5.05;73.78
72558;BME280;60583;50.094;8.748;2023-03-15T00:05:04;100170.81;;;5.20;73.43
72558;BME280;60583;50.094;8.748;2023-03-15T00:07:30;100160.13;;;5.05;73.20
72558;BME280;60583;50.094;8.748;2023-03-15T00:09:56;100164.75;;;5.03;73.45
72558;BME280;60583;50.094;8.748;2023-03-15T00:12:22;100172.00;;;5.01;73.87
72558;BME280;60583;50.094;8.748;2023-03-15T00:14:50;100182.56;;;5.01;73.69
72558;BME280;60583;50.094;8.748;2023-03-15T00:17:16;100171.88;;;4.95;73.17
72558;BME280;60583;50.094;8.748;2023-03-15T00:19:41;100172.38;;;4.82;73.65
72558;BME280;60583;50.094;8.748;2023-03-15T00:22:07;100142.03;;;4.70;72.87
72558;BME280;60583;50.094;8.748;2023-03-15T00:24:33;100190.88;;;4.98;72.94
72558;BME280;60583;50.094;8.748;2023-03-15T00:26:58;100188.88;;;4.92;73.18
72558;BME280;60583;50.094;8.748;2023-03-15T00:29:24;100187.41;;;4.90;72.97
72558;BME280;60583;50.094;8.748;2023-03-15T00:31:49;100208.03;;;4.94;73.04
72558;BME280;60583;50.094;8.748;2023-03-15T00:34:16;100207.03;;;4.87;73.05
72558;BME280;60583;50.094;8.748;2023-03-15T00:36:44;100216.78;;;4.87;73.55
72558;BME280;60583;50.094;8.748;2023-03-15T00:39:10;100223.22;;;4.84;72.72
72558;BME280;60583;50.094;8.748;2023-03-15T00:41:36;100228.50;;;4.76;73.39
72558;BME280;60583;50.094;8.748;2023-03-15T00:44:01;100220.59;;;4.60;73.26
72558;BME280;60583;50.094;8.748;2023-03-15T00:46:29;100237.75;;;4.80;72.68
72558;BME280;60583;50.094;8.748;2023-03-15T00:48:54;100235.59;;;4.68;72.77
72558;BME280;60583;50.094;8.748;2023-03-15T00:51:21;100228.66;;;4.50;72.44
72558;BME280;60583;50.094;8.748;2023-03-15T00:53:50;100241.34;;;4.47;72.58
72558;BME280;60583;50.094;8.748;2023-03-15T00:56:21;100231.78;;;4.30;72.11
72558;BME280;60583;50.094;8.748;2023-03-15T00:58:47;100243.81;;;4.32;71.22
72558;BME280;60583;50.094;8.748;2023-03-15T01:01:18;100241.19;;;4.40;70.82
72558;BME280;60583;50.094;8.748;2023-03-15T01:03:46;100229.63;;;4.33;71.22
72558;BME280;60583;50.094;8.748;2023-03-15T01:06:14;100244.28;;;4.36;70.22
72558;BME280;60583;50.094;8.748;2023-03-15T01:08:41;100215.91;;;4.22;69.58
72558;BME280;60583;50.094;8.748;2023-03-15T01:11:18;100220.69;;;4.18;69.70
72558;BME280;60583;50.094;8.748;2023-03-15T01:13:44;100249.91;;;4.33;69.86
72558;BME280;60583;50.094;8.748;2023-03-15T01:16:12;100241.31;;;4.15;70.30
72558;BME280;60583;50.094;8.748;2023-03-15T01:18:38;100262.09;;;4.26;70.33
72558;BME280;60583;50.094;8.748;2023-03-15T01:21:08;100267.03;;;4.21;70.68
72558;BME280;60583;50.094;8.748;2023-03-15T01:23:34;100254.00;;;4.19;71.00
72558;BME280;60583;50.094;8.748;2023-03-15T01:26:05;100250.63;;;4.01;71.40
72558;BME280;60583;50.094;8.748;2023-03-15T01:28:31;100262.91;;;4.18;70.39
72558;BME280;60583;50.094;8.748;2023-03-15T01:30:57;100233.63;;;3.96;71.04
72558;BME280;60583;50.094;8.748;2023-03-15T01:33:22;100235.78;;;3.92;71.09
72558;BME280;60583;50.094;8.748;2023-03-15T01:35:48;100270.91;;;4.01;71.95
72558;BME280;60583;50.094;8.748;2023-03-15T01:38:21;100271.25;;;4.06;72.05
72558;BME280;60583;50.094;8.748;2023-03-15T01:40:47;100256.94;;;3.66;73.38
72558;BME280;60583;50.094;8.748;2023-03-15T01:43:19;100272.44;;;3.69;73.85
72558;BME280;60583;50.094;8.748;2023-03-15T01:48:39;100256.28;;;3.39;75.14
72558;BME280;60583;50.094;8.748;2023-03-15T01:53:56;100276.41;;;3.48;75.53
72558;BME280;60583;50.094;8.748;2023-03-15T01:56:24;100265.03;;;3.39;75.20
72558;BME280;60583;50.094;8.748;2023-03-15T01:58:52;100266.28;;;3.27;75.78
72558;BME280;60583;50.094;8.748;2023-03-15T02:01:18;100296.53;;;3.49;76.01
72558;BME280;60583;50.094;8.748;2023-03-15T02:03:46;100302.00;;;3.55;75.74
72558;BME280;60583;50.094;8.748;2023-03-15T02:06:17;100295.66;;;3.40;75.72
72558;BME280;60583;50.094;8.748;2023-03-15T02:08:50;100309.34;;;3.44;76.29
72558;BME280;60583;50.094;8.748;2023-03-15T02:11:19;100316.63;;;3.24;76.77
72558;BME280;60583;50.094;8.748;2023-03-15T02:13:47;100298.16;;;2.98;77.86
72558;BME280;60583;50.094;8.748;2023-03-15T02:16:13;100326.34;;;3.06;78.48
72558;BME280;60583;50.094;8.748;2023-03-15T02:18:38;100321.00;;;2.98;78.54
72558;BME280;60583;50.094;8.748;2023-03-15T02:21:19;100323.06;;;3.04;78.75
72558;BME280;60583;50.094;8.748;2023-03-15T02:23:47;100326.91;;;2.92;79.67
72558;BME280;60583;50.094;8.748;2023-03-15T02:26:22;100288.31;;;2.65;79.49
72558;BME280;60583;50.094;8.748;2023-03-15T02:28:50;100297.41;;;2.71;79.83
72558;BME280;60583;50.094;8.748;2023-03-15T02:31:18;100321.25;;;2.87;79.68
72558;BME280;60583;50.094;8.748;2023-03-15T02:33:46;100311.16;;;2.82;79.60
72558;BME280;60583;50.094;8.748;2023-03-15T02:36:21;100320.44;;;2.86;79.49
72558;BME280;60583;50.094;8.748;2023-03-15T02:38:47;100288.59;;;2.62;79.92
72558;BME280;60583;50.094;8.748;2023-03-15T02:41:17;100322.91;;;2.70;80.21
72558;BME280;60583;50.094;8.748;2023-03-15T02:43:45;100307.63;;;2.56;80.12
72558;BME280;60583;50.094;8.748;2023-03-15T02:46:15;100322.44;;;2.57;80.51
72558;BME280;60583;50.094;8.748;2023-03-15T02:48:41;100267.84;;;2.24;80.59
72558;BME280;60583;50.094;8.748;2023-03-15T02:51:16;100333.69;;;2.49;81.21
72558;BME280;60583;50.094;8.748;2023-03-15T02:53:43;100322.22;;;2.50;81.58
72558;BME280;60583;50.094;8.748;2023-03-15T02:56:09;100307.88;;;2.18;81.84
72558;BME280;60583;50.094;8.748;2023-03-15T02:58:34;100328.00;;;2.36;82.30
72558;BME280;60583;50.094;8.748;2023-03-15T03:01:00;100302.44;;;2.19;81.89
72558;BME280;60583;50.094;8.748;2023-03-15T03:03:25;100331.94;;;2.23;82.17
72558;BME280;60583;50.094;8.748;2023-03-15T03:05:50;100307.72;;;2.19;81.21
72558;BME280;60583;50.094;8.748;2023-03-15T03:08:16;100333.63;;;2.41;81.33
72558;BME280;60583;50.094;8.748;2023-03-15T03:10:41;100302.38;;;2.11;81.21
72558;BME280;60583;50.094;8.748;2023-03-15T03:13:07;100302.50;;;2.10;80.67
72558;BME280;60583;50.094;8.748;2023-03-15T03:15:33;100304.03;;;2.12;80.44
72558;BME280;60583;50.094;8.748;2023-03-15T03:17:58;100327.88;;;2.28;80.08
72558;BME280;60583;50.094;8.748;2023-03-15T03:20:26;100322.38;;;2.22;80.03
72558;BME280;60583;50.094;8.748;2023-03-15T03:22:52;100341.63;;;2.22;80.79
72558;BME280;60583;50.094;8.748;2023-03-15T03:25:20;100328.47;;;2.22;80.48
72558;BME280;60583;50.094;8.748;2023-03-15T03:27:46;100343.28;;;2.23;80.58
72558;BME280;60583;50.094;8.748;2023-03-15T03:30:13;100328.06;;;2.17;80.08
72558;BME280;60583;50.094;8.748;2023-03-15T03:32:39;100350.88;;;2.26;80.28
72558;BME280;60583;50.094;8.748;2023-03-15T03:35:06;100382.63;;;2.42;80.58
72558;BME280;60583;50.094;8.748;2023-03-15T03:37:32;100354.63;;;2.24;80.70
72558;BME280;60583;50.094;8.748;2023-03-15T03:40:00;100367.88;;;2.32;81.06
72558;BME280;60583;50.094;8.748;2023-03-15T03:42:25;100379.38;;;2.31;81.16
72558;BME280;60583;50.094;8.748;2023-03-15T03:44:51;100319.22;;;1.91;81.25
72558;BME280;60583;50.094;8.748;2023-03-15T03:47:20;100372.31;;;2.31;81.50
72558;BME280;60583;50.094;8.748;2023-03-15T03:49:45;100393.38;;;2.31;81.47
72558;BME280;60583;50.094;8.748;2023-03-15T03:52:11;100383.13;;;2.28;81.81
72558;BME280;60583;50.094;8.748;2023-03-15T03:54:36;100395.06;;;2.23;81.96
72558;BME280;60583;50.094;8.748;2023-03-15T03:57:02;100382.53;;;2.34;81.58
72558;BME280;60583;50.094;8.748;2023-03-15T03:59:28;100403.00;;;2.40;81.26
72558;BME280;60583;50.094;8.748;2023-03-15T04:01:53;100365.78;;;2.08;81.24
72558;BME280;60583;50.094;8.748;2023-03-15T04:04:18;100405.41;;;2.34;81.22
72558;BME280;60583;50.094;8.748;2023-03-15T04:06:44;100403.16;;;2.39;81.14
72558;BME280;60583;50.094;8.748;2023-03-15T04:09:14;100416.16;;;2.40;80.79
72558;BME280;60583;50.094;8.748;2023-03-15T04:11:41;100391.47;;;2.14;81.39
72558;BME280;60583;50.094;8.748;2023-03-15T04:14:11;100418.78;;;2.40;80.68
72558;BME280;60583;50.094;8.748;2023-03-15T04:16:37;100424.94;;;2.31;80.77
72558;BME280;60583;50.094;8.748;2023-03-15T04:19:03;100410.09;;;2.30;80.91
72558;BME280;60583;50.094;8.748;2023-03-15T04:21:29;100421.31;;;2.32;81.13
72558;BME280;60583;50.094;8.748;2023-03-15T04:24:01;100421.63;;;2.20;81.44
72558;BME280;60583;50.094;8.748;2023-03-15T04:26:27;100409.31;;;2.20;81.38
72558;BME280;60583;50.094;8.748;2023-03-15T04:28:55;100417.22;;;2.20;81.36
72558;BME280;60583;50.094;8.748;2023-03-15T04:31:21;100423.31;;;2.21;81.51
72558;BME280;60583;50.094;8.748;2023-03-15T04:33:55;100427.22;;;2.07;82.50
72558;BME280;60583;50.094;8.748;2023-03-15T04:36:23;100400.13;;;1.97;81.91
72558;BME280;60583;50.094;8.748;2023-03-15T04:38:49;100442.22;;;2.24;82.00
72558;BME280;60583;50.094;8.748;2023-03-15T04:41:15;100411.72;;;2.04;81.76
72558;BME280;60583;50.094;8.748;2023-03-15T04:43:42;100441.84;;;2.19;81.45
72558;BME280;60583;50.094;8.748;2023-03-15T04:46:08;100441.16;;;2.17;81.62
72558;BME280;60583;50.094;8.748;2023-03-15T04:48:34;100436.09;;;2.06;82.44
72558;BME280;60583;50.094;8.748;2023-03-15T04:50:59;100432.78;;;1.94;83.08
72558;BME280;60583;50.094;8.748;2023-03-15T04:53:25;100440.25;;;1.99;83.17
72558;BME280;60583;50.094;8.748;2023-03-15T04:55:51;100429.72;;;1.99;83.13
72558;BME280;60583;50.094;8.748;2023-03-15T04:58:16;100451.47;;;2.01;83.13
72558;BME280;60583;50.094;8.748;2023-03-15T05:00:42;100451.19;;;1.94;83.29
72558;BME280;60583;50.094;8.748;2023-03-15T05:03:07;100437.63;;;1.89;83.75
72558;BME280;60583;50.094;8.748;2023-03-15T05:05:33;100437.22;;;1.94;83.59
72558;BME280;60583;50.094;8.748;2023-03-15T05:07:58;100443.59;;;2.01;83.69
72558;BME280;60583;50.094;8.748;2023-03-15T05:10:24;100438.03;;;1.94;83.72
72558;BME280;60583;50.094;8.748;2023-03-15T05:12:50;100432.19;;;2.10;82.87
72558;BME280;60583;50.094;8.748;2023-03-15T05:15:16;100457.09;;;2.16;82.79
72558;BME280;60583;50.094;8.748;2023-03-15T05:17:42;100447.16;;;2.00;83.73
72558;BME280;60583;50.094;8.748;2023-03-15T05:20:11;100428.09;;;1.98;83.19
72558;BME280;60583;50.094;8.748;2023-03-15T05:22:38;100454.50;;;2.06;83.32
72558;BME280;60583;50.094;8.748;2023-03-15T05:25:05;100456.97;;;2.08;83.29
72558;BME280;60583;50.094;8.748;2023-03-15T05:27:32;100459.59;;;2.08;83.57
72558;BME280;60583;50.094;8.748;2023-03-15T05:29:59;100426.38;;;2.07;83.08
72558;BME280;60583;50.094;8.748;2023-03-15T05:32:28;100425.47;;;1.88;83.62
72558;BME280;60583;50.094;8.748;2023-03-15T05:34:54;100455.22;;;1.99;84.14
72558;BME280;60583;50.094;8.748;2023-03-15T05:37:21;100462.88;;;2.19;83.82
72558;BME280;60583;50.094;8.748;2023-03-15T05:39:47;100441.44;;;2.14;83.27
72558;BME280;60583;50.094;8.748;2023-03-15T05:42:13;100479.50;;;2.20;83.54
72558;BME280;60583;50.094;8.748;2023-03-15T05:44:39;100463.44;;;2.23;83.43
72558;BME280;60583;50.094;8.748;2023-03-15T05:47:04;100414.09;;;1.98;83.59
72558;BME280;60583;50.094;8.748;2023-03-15T05:49:30;100474.06;;;2.31;83.18
72558;BME280;60583;50.094;8.748;2023-03-15T05:51:55;100418.38;;;2.08;83.62
72558;BME280;60583;50.094;8.748;2023-03-15T05:54:21;100460.91;;;2.31;84.94
72558;BME280;60583;50.094;8.748;2023-03-15T05:56:46;100488.06;;;2.22;86.67
72558;BME280;60583;50.094;8.748;2023-03-15T05:59:12;100490.59;;;2.04;88.06
72558;BME280;60583;50.094;8.748;2023-03-15T06:01:37;100466.56;;;1.80;89.30
72558;BME280;60583;50.094;8.748;2023-03-15T06:04:03;100498.63;;;2.03;89.34
72558;BME280;60583;50.094;8.748;2023-03-15T06:06:28;100495.91;;;1.85;90.68
72558;BME280;60583;50.094;8.748;2023-03-15T06:08:54;100491.72;;;1.92;90.99
72558;BME280;60583;50.094;8.748;2023-03-15T06:11:19;100459.94;;;1.57;92.05
72558;BME280;60583;50.094;8.748;2023-03-15T06:13:45;100494.81;;;1.78;92.08
72558;BME280;60583;50.094;8.748;2023-03-15T06:16:10;100485.00;;;1.70;92.69
72558;BME280;60583;50.094;8.748;2023-03-15T06:18:36;100484.56;;;1.65;93.61
72558;BME280;60583;50.094;8.748;2023-03-15T06:21:01;100463.84;;;1.53;93.46
72558;BME280;60583;50.094;8.748;2023-03-15T06:23:27;100489.53;;;1.59;94.37
72558;BME280;60583;50.094;8.748;2023-03-15T06:25:52;100471.31;;;1.38;95.25
72558;BME280;60583;50.094;8.748;2023-03-15T06:28:17;100458.59;;;1.53;94.10
72558;BME280;60583;50.094;8.748;2023-03-15T06:30:43;100429.56;;;1.35;94.03
72558;BME280;60583;50.094;8.748;2023-03-15T06:33:11;100499.47;;;1.84;94.09
72558;BME280;60583;50.094;8.748;2023-03-15T06:35:37;100505.03;;;1.81;93.30
72558;BME280;60583;50.094;8.748;2023-03-15T06:38:02;100510.56;;;1.78;94.40
72558;BME280;60583;50.094;8.748;2023-03-15T06:40:29;100504.31;;;1.79;93.89
72558;BME280;60583;50.094;8.748;2023-03-15T06:42:54;100475.44;;;1.69;93.58
72558;BME280;60583;50.094;8.748;2023-03-15T06:45:20;100493.81;;;1.79;93.55
72558;BME280;60583;50.094;8.748;2023-03-15T06:47:45;100515.25;;;1.84;93.37
72558;BME280;60583;50.094;8.748;2023-03-15T06:50:11;100519.00;;;1.91;93.97
72558;BME280;60583;50.094;8.748;2023-03-15T06:52:39;100522.16;;;1.94;93.06
72558;BME280;60583;50.094;8.748;2023-03-15T06:55:05;100526.34;;;1.87;93.63
72558;BME280;60583;50.094;8.748;2023-03-15T06:57:30;100515.25;;;1.84;93.86
72558;BME280;60583;50.094;8.748;2023-03-15T06:59:56;100514.97;;;1.87;93.66
72558;BME280;60583;50.094;8.748;2023-03-15T07:02:21;100536.28;;;1.84;94.58
72558;BME280;60583;50.094;8.748;2023-03-15T07:04:47;100492.19;;;1.78;93.69
72558;BME280;60583;50.094;8.748;2023-03-15T07:07:13;100542.22;;;2.05;94.00
72558;BME280;60583;50.094;8.748;2023-03-15T07:09:39;100514.28;;;1.94;93.52
72558;BME280;60583;50.094;8.748;2023-03-15T07:12:06;100534.75;;;2.10;93.54
72558;BME280;60583;50.094;8.748;2023-03-15T07:14:33;100555.34;;;2.24;93.25
72558;BME280;60583;50.094;8.748;2023-03-15T07:16:58;100509.31;;;1.91;93.18
72558;BME280;60583;50.094;8.748;2023-03-15T07:19:24;100529.91;;;2.06;93.29
72558;BME280;60583;50.094;8.748;2023-03-15T07:21:49;100507.13;;;1.77;94.17
72558;BME280;60583;50.094;8.748;2023-03-15T07:24:16;100555.94;;;1.99;94.51
72558;BME280;60583;50.094;8.748;2023-03-15T07:26:42;100558.97;;;1.94;94.53
72558;BME280;60583;50.094;8.748;2023-03-15T07:29:07;100531.88;;;1.65;95.08
72558;BME280;60583;50.094;8.748;2023-03-15T07:31:33;100564.38;;;2.03;94.80
72558;BME280;60583;50.094;8.748;2023-03-15T07:33:58;100533.81;;;1.82;95.45
72558;BME280;60583;50.094;8.748;2023-03-15T07:36:23;100557.31;;;2.03;94.81
72558;BME280;60583;50.094;8.748;2023-03-15T07:38:49;100542.09;;;1.97;93.98
72558;BME280;60583;50.094;8.748;2023-03-15T07:41:15;100534.66;;;1.83;94.22
72558;BME280;60583;50.094;8.748;2023-03-15T07:43:40;100567.13;;;1.91;93.95
72558;BME280;60583;50.094;8.748;2023-03-15T07:46:06;100575.16;;;2.00;94.50
72558;BME280;60583;50.094;8.748;2023-03-15T07:48:31;100568.13;;;1.90;94.78
72558;BME280;60583;50.094;8.748;2023-03-15T07:50:57;100571.72;;;2.09;94.62
72558;BME280;60583;50.094;8.748;2023-03-15T07:53:23;100562.84;;;2.10;93.89
72558;BME280;60583;50.094;8.748;2023-03-15T07:55:49;100578.91;;;2.16;94.18
72558;BME280;60583;50.094;8.748;2023-03-15T07:58:15;100562.56;;;2.22;93.82
72558;BME280;60583;50.094;8.748;2023-03-15T08:10:07;100590.66;;;2.78;91.63
72558;BME280;60583;50.094;8.748;2023-03-15T08:12:32;100567.56;;;2.62;91.34
72558;BME280;60583;50.094;8.748;2023-03-15T08:14:59;100593.31;;;3.05;90.53
72558;BME280;60583;50.094;8.748;2023-03-15T08:17:25;100553.25;;;2.84;91.18
72558;BME280;60583;50.094;8.748;2023-03-15T08:19:50;100583.06;;;3.11;90.46
72558;BME280;60583;50.094;8.748;2023-03-15T08:22:16;100596.19;;;3.21;90.10
72558;BME280;60583;50.094;8.748;2023-03-15T08:24:41;100604.88;;;3.31;89.89
72558;BME280;60583;50.094;8.748;2023-03-15T08:27:07;100599.03;;;3.37;89.19
72558;BME280;60583;50.094;8.748;2023-03-15T08:29:32;100599.78;;;3.47;88.70
72558;BME280;60583;50.094;8.748;2023-03-15T08:31:58;100610.50;;;3.63;88.40
72558;BME280;60583;50.094;8.748;2023-03-15T08:34:24;100622.44;;;3.67;88.50
72558;BME280;60583;50.094;8.748;2023-03-15T08:36:49;100621.81;;;3.73;89.07
72558;BME280;60583;50.094;8.748;2023-03-15T08:39:15;100595.59;;;3.54;89.57
72558;BME280;60583;50.094;8.748;2023-03-15T08:41:41;100588.34;;;3.56;88.68
72558;BME280;60583;50.094;8.748;2023-03-15T08:44:08;100616.38;;;3.57;87.68
72558;BME280;60583;50.094;8.748;2023-03-15T08:46:34;100569.66;;;3.32;88.28
72558;BME280;60583;50.094;8.748;2023-03-15T08:49:01;100624.59;;;3.72;88.09
72558;BME280;60583;50.094;8.748;2023-03-15T08:51:26;100626.34;;;3.81;87.51
72558;BME280;60583;50.094;8.748;2023-03-15T08:53:53;100621.34;;;3.78;88.39
72558;BME280;60583;50.094;8.748;2023-03-15T08:56:19;100564.81;;;3.45;87.79
72558;BME280;60583;50.094;8.748;2023-03-15T08:58:45;100625.09;;;3.85;87.03
72558;BME280;60583;50.094;8.748;2023-03-15T09:01:11;100642.84;;;4.01;87.40
72558;BME280;60583;50.094;8.748;2023-03-15T09:03:37;100642.25;;;4.07;87.12
72558;BME280;60583;50.094;8.748;2023-03-15T09:06:03;100651.47;;;4.03;86.94
72558;BME280;60583;50.094;8.748;2023-03-15T09:08:28;100650.75;;;4.01;86.79
72558;BME280;60583;50.094;8.748;2023-03-15T09:10:55;100645.81;;;4.15;86.84
72558;BME280;60583;50.094;8.748;2023-03-15T09:13:22;100659.81;;;4.51;86.42
72558;BME280;60583;50.094;8.748;2023-03-15T09:15:51;100653.00;;;4.66;84.86
72558;BME280;60583;50.094;8.748;2023-03-15T09:18:18;100654.06;;;4.73;84.26
72558;BME280;60583;50.094;8.748;2023-03-15T09:20:44;100643.75;;;4.88;84.46
72558;BME280;60583;50.094;8.748;2023-03-15T09:23:11;100659.84;;;5.02;83.70
72558;BME280;60583;50.094;8.748;2023-03-15T09:25:37;100632.28;;;4.79;83.72
72558;BME280;60583;50.094;8.748;2023-03-15T09:28:04;100669.63;;;4.84;83.85
72558;BME280;60583;50.094;8.748;2023-03-15T09:30:30;100661.78;;;4.49;84.43
72558;BME280;60583;50.094;8.748;2023-03-15T09:32:55;100675.22;;;4.56;86.51
72558;BME280;60583;50.094;8.748;2023-03-15T09:35:21;100666.44;;;4.55;85.84
72558;BME280;60583;50.094;8.748;2023-03-15T09:37:48;100677.78;;;4.91;86.08
72558;BME280;60583;50.094;8.748;2023-03-15T09:40:24;100664.41;;;5.60;82.63
72558;BME280;60583;50.094;8.748;2023-03-15T09:48:50;100699.25;;;5.89;81.27
72558;BME280;60583;50.094;8.748;2023-03-15T09:51:38;100691.38;;;6.05;80.69
72558;BME280;60583;50.094;8.748;2023-03-15T09:54:12;100695.69;;;6.14;80.70
72558;BME280;60583;50.094;8.748;2023-03-15T09:56:48;100701.47;;;5.94;79.55
72558;BME280;60583;50.094;8.748;2023-03-15T09:59:15;100706.16;;;5.82;79.98
72558;BME280;60583;50.094;8.748;2023-03-15T10:01:47;100718.66;;;5.64;78.97
72558;BME280;60583;50.094;8.748;2023-03-15T10:04:24;100700.59;;;5.85;77.91
72558;BME280;60583;50.094;8.748;2023-03-15T10:06:56;100696.66;;;5.97;78.31
72558;BME280;60583;50.094;8.748;2023-03-15T10:09:27;100638.69;;;5.78;77.06
72558;BME280;60583;50.094;8.748;2023-03-15T10:12:13;100707.69;;;6.99;74.95
72558;BME280;60583;50.094;8.748;2023-03-15T10:15:01;100714.28;;;7.19;73.83
72558;BME280;60583;50.094;8.748;2023-03-15T10:17:42;100704.84;;;7.17;74.04
72558;BME280;60583;50.094;8.748;2023-03-15T10:20:24;100697.34;;;7.20;74.00
72558;BME280;60583;50.094;8.748;2023-03-15T10:23:04;100702.72;;;6.72;72.51
72558;BME280;60583;50.094;8.748;2023-03-15T10:25:34;100696.41;;;6.65;73.18
72558;BME280;60583;50.094;8.748;2023-03-15T10:28:07;100704.31;;;7.21;70.67
72558;BME280;60583;50.094;8.748;2023-03-15T10:30:36;100717.44;;;8.39;68.88
72558;BME280;60583;50.094;8.748;2023-03-15T10:35:45;100709.56;;;7.45;69.95
72558;BME280;60583;50.094;8.748;2023-03-15T10:38:21;100714.91;;;7.29;68.68
72558;BME280;60583;50.094;8.748;2023-03-15T10:40:55;100674.81;;;7.16;69.91
72558;BME280;60583;50.094;8.748;2023-03-15T10:43:27;100711.78;;;7.18;70.93
72558;BME280;60583;50.094;8.748;2023-03-15T10:46:43;100712.97;;;6.91;71.03
72558;BME280;60583;50.094;8.748;2023-03-15T10:48:56;100709.66;;;6.65;73.16
72558;BME280;60583;50.094;8.748;2023-03-15T10:51:31;100683.50;;;6.37;73.76
72558;BME280;60583;50.094;8.748;2023-03-15T10:53:59;100707.03;;;6.49;74.08
72558;BME280;60583;50.094;8.748;2023-03-15T10:56:29;100707.72;;;7.46;72.48
72558;BME280;60583;50.094;8.748;2023-03-15T10:58:57;100698.44;;;9.69;65.86
72558;BME280;60583;50.094;8.748;2023-03-15T11:01:31;100700.66;;;11.62;61.73
72558;BME280;60583;50.094;8.748;2023-03-15T11:04:13;100690.44;;;12.26;57.34
72558;BME280;60583;50.094;8.748;2023-03-15T11:06:42;100693.28;;;10.32;60.13
72558;BME280;60583;50.094;8.748;2023-03-15T11:09:10;100701.56;;;10.08;58.41
72558;BME280;60583;50.094;8.748;2023-03-15T11:14:17;100716.31;;;8.56;62.88
72558;BME280;60583;50.094;8.748;2023-03-15T11:16:48;100715.31;;;8.57;62.59
72558;BME280;60583;50.094;8.748;2023-03-15T11:19:17;100683.41;;;8.04;62.88
72558;BME280;60583;50.094;8.748;2023-03-15T11:21:44;100718.31;;;8.77;62.72
72558;BME280;60583;50.094;8.748;2023-03-15T11:24:20;100725.75;;;8.81;61.14
72558;BME280;60583;50.094;8.748;2023-03-15T11:26:47;100723.06;;;8.67;60.26
72558;BME280;60583;50.094;8.748;2023-03-15T11:29:31;100698.53;;;8.34;61.62
72558;BME280;60583;50.094;8.748;2023-03-15T11:31:59;100720.38;;;8.13;62.36
72558;BME280;60583;50.094;8.748;2023-03-15T11:34:36;100718.47;;;7.99;62.39
72558;BME280;60583;50.094;8.748;2023-03-15T11:37:09;100728.91;;;7.70;62.96
72558;BME280;60583;50.094;8.748;2023-03-15T11:40:24;100737.34;;;7.65;62.38
72558;BME280;60583;50.094;8.748;2023-03-15T11:42:58;100731.69;;;7.68;64.59
72558;BME280;60583;50.094;8.748;2023-03-15T11:45:42;100710.41;;;7.85;64.81
72558;BME280;60583;50.094;8.748;2023-03-15T11:50:58;100721.81;;;8.77;60.39
72558;BME280;60583;50.094;8.748;2023-03-15T11:53:30;100729.91;;;8.61;60.30
72558;BME280;60583;50.094;8.748;2023-03-15T11:56:18;100743.00;;;8.40;59.30
72558;BME280;60583;50.094;8.748;2023-03-15T11:58:59;100741.63;;;8.13;60.26
72558;BME280;60583;50.094;8.748;2023-03-15T12:01:26;100755.53;;;7.93;58.82
72558;BME280;60583;50.094;8.748;2023-03-15T12:06:46;100742.94;;;7.79;57.74
72558;BME280;60583;50.094;8.748;2023-03-15T12:17:57;100737.97;;;7.76;56.83
72558;BME280;60583;50.094;8.748;2023-03-15T12:20:37;100736.91;;;8.99;55.41
72558;BME280;60583;50.094;8.748;2023-03-15T12:28:36;100743.22;;;11.98;46.36
72558;BME280;60583;50.094;8.748;2023-03-15T12:31:08;100752.16;;;13.11;44.61
72558;BME280;60583;50.094;8.748;2023-03-15T12:33:52;100749.84;;;11.40;46.90
72558;BME280;60583;50.094;8.748;2023-03-15T12:36:36;100752.63;;;10.41;49.09
72558;BME280;60583;50.094;8.748;2023-03-15T12:39:20;100756.69;;;10.07;51.28
72558;BME280;60583;50.094;8.748;2023-03-15T12:41:50;100759.84;;;9.52;51.95
72558;BME280;60583;50.094;8.748;2023-03-15T12:46:53;100766.88;;;12.48;45.62
72558;BME280;60583;50.094;8.748;2023-03-15T12:54:19;100752.56;;;10.34;49.90
72558;BME280;60583;50.094;8.748;2023-03-15T12:56:49;100744.97;;;9.58;50.12
72558;BME280;60583;50.094;8.748;2023-03-15T13:04:47;100736.97;;;8.46;53.69
72558;BME280;60583;50.094;8.748;2023-03-15T13:07:27;100758.72;;;8.50;54.88
72558;BME280;60583;50.094;8.748;2023-03-15T13:10:14;100761.19;;;8.20;53.54
72558;BME280;60583;50.094;8.748;2023-03-15T13:12:52;100752.13;;;8.07;54.44
72558;BME280;60583;50.094;8.748;2023-03-15T13:15:25;100766.50;;;7.82;54.13
72558;BME280;60583;50.094;8.748;2023-03-15T13:17:57;100748.00;;;7.57;55.00
72558;BME280;60583;50.094;8.748;2023-03-15T13:23:25;100754.09;;;7.74;55.82
72558;BME280;60583;50.094;8.748;2023-03-15T13:26:07;100765.53;;;7.75;54.45
72558;BME280;60583;50.094;8.748;2023-03-15T13:28:41;100760.28;;;7.50;53.91
72558;BME280;60583;50.094;8.748;2023-03-15T13:31:23;100773.06;;;7.47;55.70
72558;BME280;60583;50.094;8.748;2023-03-15T13:33:51;100766.94;;;7.38;54.81
72558;BME280;60583;50.094;8.748;2023-03-15T13:36:37;100751.53;;;7.26;54.66
72558;BME280;60583;50.094;8.748;2023-03-15T13:39:09;100746.41;;;7.32;55.40
72558;BME280;60583;50.094;8.748;2023-03-15T13:41:39;100765.53;;;7.75;54.91
72558;BME280;60583;50.094;8.748;2023-03-15T13:44:14;100758.72;;;8.11;53.39
72558;BME280;60583;50.094;8.748;2023-03-15T13:46:40;100762.38;;;8.18;52.80
72558;BME280;60583;50.094;8.748;2023-03-15T13:49:06;100761.94;;;7.98;52.13
72558;BME280;60583;50.094;8.748;2023-03-15T13:51:34;100758.19;;;7.93;53.02
72558;BME280;60583;50.094;8.748;2023-03-15T13:54:16;100760.22;;;7.83;52.99
72558;BME280;60583;50.094;8.748;2023-03-15T13:57:05;100757.25;;;7.78;51.26
72558;BME280;60583;50.094;8.748;2023-03-15T13:59:38;100757.03;;;7.87;52.24
72558;BME280;60583;50.094;8.748;2023-03-15T14:02:12;100747.75;;;7.83;51.17
72558;BME280;60583;50.094;8.748;2023-03-15T14:04:39;100726.91;;;7.64;52.17
72558;BME280;60583;50.094;8.748;2023-03-15T14:07:38;100758.19;;;7.85;50.52
72558;BME280;60583;50.094;8.748;2023-03-15T14:10:28;100732.03;;;7.73;51.47